createdAt,value
2018-06-09T00:00:40.916Z,93.07
2018-06-09T00:03:09.821Z,93.29
2018-06-09T00:05:38.773Z,92.58
2018-06-09T00:08:11.319Z,92.53
2018-06-09T00:10:40.287Z,92.48
2018-06-09T00:13:09.266Z,92.52
2018-06-09T00:15:38.198Z,92.66
2018-06-09T00:18:07.097Z,92.52
2018-06-09T00:20:36.029Z,93.17
2018-06-09T00:23:05.017Z,92.63
2018-06-09T00:25:33.983Z,92.96
2018-06-09T00:28:02.994Z,92.83
2018-06-09T00:30:31.948Z,93.03
2018-06-09T00:33:00.882Z,93.39
2018-06-09T00:35:29.820Z,93.16
2018-06-09T00:37:58.856Z,92.89
2018-06-09T00:40:27.766Z,93.38
2018-06-09T00:42:56.700Z,93.14
2018-06-09T00:45:25.611Z,93.58
2018-06-09T00:47:54.538Z,93.79
2018-06-09T00:50:23.448Z,93.94
2018-06-09T00:52:52.379Z,94.36
2018-06-09T00:55:21.301Z,94.18
2018-06-09T00:57:53.993Z,94.36
2018-06-09T01:00:23.051Z,94.27
2018-06-09T01:02:51.993Z,93.90
2018-06-09T01:05:20.903Z,94.36
2018-06-09T01:07:49.848Z,94.07
2018-06-09T01:10:18.944Z,93.65
2018-06-09T01:12:48.741Z,94.25
2018-06-09T01:15:17.680Z,93.06
2018-06-09T01:17:46.583Z,92.94
2018-06-09T01:20:15.607Z,93.41
2018-06-09T01:22:44.549Z,93.57
2018-06-09T01:25:13.451Z,93.21
2018-06-09T01:27:42.361Z,92.75
2018-06-09T01:30:11.314Z,93.37
2018-06-09T01:32:40.241Z,93.62
2018-06-09T01:35:09.185Z,93.75
2018-06-09T01:37:38.129Z,93.63
2018-06-09T01:40:07.041Z,93.06
2018-06-09T01:42:35.947Z,93.36
2018-06-09T01:45:05.149Z,93.45
2018-06-09T01:47:34.031Z,93.17
2018-06-09T01:50:02.990Z,93.51
2018-06-09T01:52:31.891Z,93.38
2018-06-09T01:55:00.813Z,92.79
2018-06-09T01:57:29.744Z,92.20
2018-06-09T01:59:58.997Z,92.05
2018-06-09T02:02:27.902Z,92.58
2018-06-09T02:04:56.817Z,92.88
2018-06-09T02:07:25.738Z,91.94
2018-06-09T02:09:54.651Z,92.11
2018-06-09T02:12:23.570Z,92.32
2018-06-09T02:14:52.509Z,92.04
2018-06-09T02:17:21.729Z,92.22
2018-06-09T02:19:50.668Z,92.87
2018-06-09T02:22:20.036Z,92.43
2018-06-09T02:24:48.953Z,92.33
2018-06-09T02:27:17.878Z,92.37
2018-06-09T02:29:46.804Z,92.45
2018-06-09T02:32:15.756Z,92.29
2018-06-09T02:34:44.687Z,92.54
2018-06-09T02:37:13.612Z,92.98
2018-06-09T02:39:42.549Z,92.51
2018-06-09T02:42:11.447Z,92.77
2018-06-09T02:44:40.585Z,92.86
2018-06-09T02:47:09.473Z,92.86
2018-06-09T02:49:38.398Z,92.20
2018-06-09T02:52:07.324Z,92.37
2018-06-09T02:54:36.272Z,92.74
2018-06-09T02:57:05.194Z,92.84
2018-06-09T02:59:34.083Z,92.69
2018-06-09T03:02:03.380Z,92.95
2018-06-09T03:04:32.304Z,92.64
2018-06-09T03:07:01.283Z,93.41
2018-06-09T03:09:30.463Z,93.44
2018-06-09T03:11:59.426Z,93.16
2018-06-09T03:14:28.363Z,93.04
2018-06-09T03:16:57.274Z,93.09
2018-06-09T03:19:26.207Z,92.53
2018-06-09T03:21:55.139Z,92.07
2018-06-09T03:24:24.068Z,92.57
2018-06-09T03:26:52.979Z,92.52
2018-06-09T03:29:22.094Z,92.99
2018-06-09T03:31:51.041Z,92.67
2018-06-09T03:34:19.953Z,92.88
2018-06-09T03:36:48.888Z,92.72
2018-06-09T03:39:17.875Z,92.37
2018-06-09T03:41:47.098Z,92.36
2018-06-09T03:44:15.997Z,92.45
2018-06-09T03:46:44.915Z,92.50
2018-06-09T03:49:13.988Z,91.96
2018-06-09T03:51:42.898Z,92.20
2018-06-09T03:54:11.804Z,92.19
2018-06-09T03:56:40.740Z,92.23
2018-06-09T03:59:09.684Z,91.98
2018-06-09T04:01:38.610Z,91.31
2018-06-09T04:04:07.675Z,91.82
2018-06-09T04:06:36.583Z,91.17
2018-06-09T04:09:07.725Z,92.15
2018-06-09T04:11:36.731Z,91.42
2018-06-09T04:14:05.653Z,91.72
2018-06-09T04:16:35.487Z,91.98
2018-06-09T04:19:04.426Z,92.15
2018-06-09T04:21:33.330Z,91.74
2018-06-09T04:24:02.273Z,91.30
2018-06-09T04:26:31.202Z,90.42
2018-06-09T04:29:00.140Z,90.31
2018-06-09T04:31:29.661Z,90.12
2018-06-09T04:33:58.753Z,89.32
2018-06-09T04:36:27.675Z,89.12
2018-06-09T04:38:56.616Z,88.69
2018-06-09T04:41:25.556Z,89.34
2018-06-09T04:43:54.480Z,87.44
2018-06-09T04:46:23.372Z,88.34
2018-06-09T04:48:52.311Z,88.02
2018-06-09T04:51:21.256Z,87.95
2018-06-09T04:53:50.193Z,87.71
2018-06-09T04:56:19.118Z,88.16
2018-06-09T04:58:48.037Z,87.49
2018-06-09T05:01:17.009Z,87.40
2018-06-09T05:03:45.920Z,86.64
2018-06-09T05:06:14.877Z,85.82
2018-06-09T05:08:43.816Z,85.57
2018-06-09T05:11:12.722Z,85.33
2018-06-09T05:13:41.631Z,85.16
2018-06-09T05:16:10.589Z,85.45
2018-06-09T05:18:39.552Z,84.48
2018-06-09T05:21:08.488Z,84.71
2018-06-09T05:23:37.428Z,83.92
2018-06-09T05:26:06.360Z,84.27
2018-06-09T05:28:35.293Z,83.78
2018-06-09T05:31:04.215Z,83.82
2018-06-09T05:33:33.149Z,82.41
2018-06-09T05:36:02.054Z,82.01
2018-06-09T05:38:30.982Z,82.51
2018-06-09T05:40:59.886Z,82.12
2018-06-09T05:43:28.911Z,82.48
2018-06-09T05:45:57.849Z,82.99
2018-06-09T05:48:27.194Z,83.35
2018-06-09T05:50:56.144Z,83.25
2018-06-09T05:53:25.057Z,82.92
2018-06-09T05:55:53.986Z,82.39
2018-06-09T05:58:22.883Z,82.33
2018-06-09T06:00:51.818Z,82.03
2018-06-09T06:03:26.738Z,81.92
2018-06-09T06:05:55.669Z,82.45
2018-06-09T06:08:24.636Z,81.64
2018-06-09T06:10:53.514Z,82.13
2018-06-09T06:13:22.446Z,81.15
2018-06-09T06:15:51.374Z,81.31
2018-06-09T06:18:20.318Z,80.86
2018-06-09T06:20:49.264Z,80.60
2018-06-09T06:23:18.178Z,80.03
2018-06-09T06:25:47.106Z,79.34
2018-06-09T06:28:16.030Z,79.63
2018-06-09T06:30:45.458Z,80.60
2018-06-09T06:33:15.032Z,79.58
2018-06-09T06:35:44.068Z,79.61
2018-06-09T06:38:13.002Z,78.70
2018-06-09T06:40:41.949Z,78.72
2018-06-09T06:43:10.856Z,78.76
2018-06-09T06:45:39.818Z,78.43
2018-06-09T06:48:08.732Z,78.42
2018-06-09T06:50:37.668Z,79.36
2018-06-09T06:53:06.620Z,78.73
2018-06-09T06:55:35.582Z,78.94
2018-06-09T06:58:04.496Z,79.26
2018-06-09T07:00:33.433Z,79.36
2018-06-09T07:03:02.377Z,79.53
2018-06-09T07:05:31.302Z,80.67
2018-06-09T07:08:00.259Z,78.18
2018-06-09T07:10:29.123Z,77.67
2018-06-09T07:12:58.076Z,77.37
2018-06-09T07:15:27.035Z,76.52
2018-06-09T07:17:55.964Z,76.49
2018-06-09T07:20:24.907Z,77.14
2018-06-09T07:22:53.822Z,76.34
2018-06-09T07:25:22.759Z,76.15
2018-06-09T07:27:51.692Z,75.68
2018-06-09T07:30:20.631Z,74.80
2018-06-09T07:32:49.595Z,75.22
2018-06-09T07:35:18.520Z,75.14
2018-06-09T07:37:47.469Z,74.71
2018-06-09T07:40:16.420Z,75.13
2018-06-09T07:42:45.344Z,75.97
2018-06-09T07:45:14.264Z,76.09
2018-06-09T07:47:43.169Z,76.43
2018-06-09T07:50:12.084Z,76.11
2018-06-09T07:52:41.046Z,77.16
2018-06-09T07:55:09.923Z,76.92
2018-06-09T07:57:42.681Z,76.51
2018-06-09T08:00:15.568Z,77.23
2018-06-09T08:02:44.578Z,77.84
2018-06-09T08:05:13.496Z,77.58
2018-06-09T08:07:42.438Z,77.55
2018-06-09T08:10:11.344Z,77.14
2018-06-09T08:12:40.273Z,77.55
2018-06-09T08:15:09.214Z,77.73
2018-06-09T08:17:38.112Z,77.01
2018-06-09T08:20:07.128Z,77.05
2018-06-09T08:22:36.050Z,77.75
2018-06-09T08:25:05.041Z,77.42
2018-06-09T08:27:33.991Z,77.31
2018-06-09T08:30:02.922Z,78.17
2018-06-09T08:32:31.894Z,77.31
2018-06-09T08:35:00.788Z,77.14
2018-06-09T08:37:30.595Z,77.91
2018-06-09T08:39:59.540Z,78.00
2018-06-09T08:42:28.475Z,78.54
2018-06-09T08:44:57.422Z,77.40
2018-06-09T08:47:26.342Z,76.61
2018-06-09T08:49:55.276Z,76.96
2018-06-09T08:52:24.337Z,77.19
2018-06-09T08:54:55.268Z,77.92
2018-06-09T08:57:24.203Z,76.56
2018-06-09T08:59:53.124Z,76.32
2018-06-09T09:02:22.080Z,77.18
2018-06-09T09:04:51.025Z,77.04
2018-06-09T09:07:19.923Z,76.26
2018-06-09T09:09:48.857Z,76.00
2018-06-09T09:12:21.588Z,76.05
2018-06-09T09:14:50.499Z,75.11
2018-06-09T09:17:19.501Z,75.14
2018-06-09T09:19:48.727Z,75.94
2018-06-09T09:22:17.652Z,74.64
2018-06-09T09:24:46.566Z,74.39
2018-06-09T09:27:15.501Z,74.79
2018-06-09T09:29:44.433Z,74.68
2018-06-09T09:32:13.640Z,74.69
2018-06-09T09:34:42.492Z,74.65
2018-06-09T09:37:11.454Z,73.66
2018-06-09T09:39:40.365Z,74.12
2018-06-09T09:42:09.267Z,74.14
2018-06-09T09:44:38.183Z,74.27
2018-06-09T09:47:07.092Z,74.23
2018-06-09T09:49:36.018Z,74.68
2018-06-09T09:52:04.984Z,74.67
2018-06-09T09:54:33.916Z,74.70
2018-06-09T09:57:02.867Z,74.76
2018-06-09T09:59:31.992Z,74.84
2018-06-09T10:02:00.919Z,74.09
2018-06-09T10:04:29.820Z,74.59
2018-06-09T10:06:58.767Z,73.84
2018-06-09T10:09:27.695Z,74.15
2018-06-09T10:11:56.622Z,73.94
2018-06-09T10:14:25.563Z,73.01
2018-06-09T10:16:54.456Z,72.39
2018-06-09T10:19:23.496Z,71.41
2018-06-09T10:21:52.459Z,71.98
2018-06-09T10:24:21.419Z,72.50
2018-06-09T10:26:50.337Z,72.60
2018-06-09T10:29:19.422Z,71.45
2018-06-09T10:31:48.318Z,71.99
2018-06-09T10:34:17.244Z,72.34
2018-06-09T10:36:46.151Z,71.99
2018-06-09T10:39:15.259Z,70.66
2018-06-09T10:41:44.151Z,72.00
2018-06-09T10:44:13.082Z,71.11
2018-06-09T10:46:42.013Z,69.55
2018-06-09T10:49:10.924Z,70.71
2018-06-09T10:51:39.857Z,68.36
2018-06-09T10:54:08.780Z,68.64
2018-06-09T10:56:37.714Z,70.56
2018-06-09T10:59:06.635Z,68.66
2018-06-09T11:01:35.524Z,68.78
2018-06-09T11:04:04.464Z,68.58
2018-06-09T11:06:33.376Z,68.71
2018-06-09T11:09:02.320Z,68.85
2018-06-09T11:11:31.234Z,68.82
2018-06-09T11:14:00.142Z,68.34
2018-06-09T11:16:29.065Z,68.60
2018-06-09T11:18:57.959Z,68.65
2018-06-09T11:21:26.921Z,68.44
2018-06-09T11:23:55.822Z,68.24
2018-06-09T11:26:24.740Z,67.90
2018-06-09T11:28:53.666Z,67.63
2018-06-09T11:31:22.578Z,67.34
2018-06-09T11:33:51.502Z,67.74
2018-06-09T11:36:20.400Z,68.30
2018-06-09T11:38:49.312Z,68.20
2018-06-09T11:41:18.254Z,66.89
2018-06-09T11:43:47.165Z,67.18
2018-06-09T11:46:16.096Z,68.56
2018-06-09T11:48:45.002Z,68.01
2018-06-09T11:51:13.918Z,69.00
2018-06-09T11:53:42.827Z,67.18
2018-06-09T11:56:11.738Z,67.05
2018-06-09T11:58:41.492Z,67.09
2018-06-09T12:01:10.373Z,65.90
2018-06-09T12:03:39.286Z,66.52
2018-06-09T12:06:08.219Z,67.04
2018-06-09T12:08:37.132Z,67.68
2018-06-09T12:11:06.071Z,66.91
2018-06-09T12:13:34.974Z,65.16
2018-06-09T12:16:04.749Z,63.37
2018-06-09T12:18:33.682Z,63.87
2018-06-09T12:21:02.594Z,63.54
2018-06-09T12:23:31.526Z,64.18
2018-06-09T12:26:00.461Z,64.76
2018-06-09T12:28:29.388Z,63.01
2018-06-09T12:30:58.306Z,62.53
2018-06-09T12:33:27.210Z,63.45
2018-06-09T12:35:56.154Z,63.20
2018-06-09T12:38:25.071Z,63.14
2018-06-09T12:40:53.975Z,63.74
2018-06-09T12:43:22.898Z,62.83
2018-06-09T12:45:51.833Z,62.49
2018-06-09T12:48:20.752Z,62.18
2018-06-09T12:50:49.666Z,63.18
2018-06-09T12:53:18.562Z,62.57
2018-06-09T12:55:47.475Z,61.92
2018-06-09T12:58:16.403Z,62.04
2018-06-09T13:00:45.335Z,61.65
2018-06-09T13:03:14.287Z,62.10
2018-06-09T13:05:43.224Z,60.91
2018-06-09T13:08:12.134Z,61.45
2018-06-09T13:10:41.042Z,61.80
2018-06-09T13:13:09.970Z,62.07
2018-06-09T13:15:38.874Z,60.73
2018-06-09T13:18:07.777Z,61.62
2018-06-09T13:20:36.689Z,62.04
2018-06-09T13:23:05.590Z,63.61
2018-06-09T13:25:34.516Z,63.50
2018-06-09T13:28:03.438Z,64.59
2018-06-09T13:30:32.738Z,64.41
2018-06-09T13:33:01.843Z,64.92
2018-06-09T13:35:30.777Z,65.22
2018-06-09T13:37:59.723Z,65.65
2018-06-09T13:40:28.679Z,64.68
2018-06-09T13:42:57.575Z,65.19
2018-06-09T13:45:26.517Z,63.86
2018-06-09T13:47:55.443Z,62.68
2018-06-09T13:50:24.364Z,61.60
2018-06-09T13:52:53.685Z,61.64
2018-06-09T13:55:22.636Z,61.67
2018-06-09T13:57:51.546Z,62.39
2018-06-09T14:00:20.476Z,61.80
2018-06-09T14:02:49.420Z,61.02
2018-06-09T14:05:18.327Z,61.90
2018-06-09T14:07:47.424Z,61.91
2018-06-09T14:10:16.349Z,60.54
2018-06-09T14:12:45.235Z,61.19
2018-06-09T14:15:14.153Z,61.69
2018-06-09T14:17:43.089Z,61.34
2018-06-09T14:20:12.000Z,62.05
2018-06-09T14:22:40.937Z,60.88
2018-06-09T14:25:09.874Z,61.21
2018-06-09T14:27:38.788Z,62.06
2018-06-09T14:30:07.689Z,62.07
2018-06-09T14:32:36.776Z,63.02
2018-06-09T14:35:05.666Z,63.00
2018-06-09T14:37:34.596Z,63.43
2018-06-09T14:40:03.550Z,61.79
2018-06-09T14:42:32.454Z,62.76
2018-06-09T14:45:01.831Z,63.02
2018-06-09T14:47:30.855Z,62.03
2018-06-09T14:49:59.841Z,60.97
2018-06-09T14:52:28.779Z,61.67
2018-06-09T14:54:57.825Z,61.72
2018-06-09T14:57:26.802Z,60.84
2018-06-09T14:59:55.748Z,60.56
2018-06-09T15:02:24.670Z,60.45
2018-06-09T15:04:53.670Z,60.53
2018-06-09T15:07:22.563Z,61.62
2018-06-09T15:09:51.512Z,60.91
2018-06-09T15:12:20.430Z,61.03
2018-06-09T15:14:49.338Z,60.54
2018-06-09T15:17:18.267Z,60.99
2018-06-09T15:19:47.167Z,61.46
2018-06-09T15:22:16.110Z,61.03
2018-06-09T15:24:45.042Z,61.21
2018-06-09T15:27:13.932Z,60.81
2018-06-09T15:29:42.855Z,61.32
2018-06-09T15:32:11.887Z,61.21
2018-06-09T15:34:40.869Z,61.74
2018-06-09T15:37:09.759Z,61.74
2018-06-09T15:39:38.659Z,61.69
2018-06-09T15:42:07.564Z,61.04
2018-06-09T15:44:36.471Z,61.43
2018-06-09T15:47:05.652Z,61.16
2018-06-09T15:49:34.566Z,61.21
2018-06-09T15:52:03.488Z,61.31
2018-06-09T15:54:32.457Z,61.93
2018-06-09T15:57:01.322Z,62.44
2018-06-09T15:59:30.252Z,62.54
2018-06-09T16:01:59.348Z,61.64
2018-06-09T16:04:28.281Z,61.96
2018-06-09T16:06:57.278Z,62.04
2018-06-09T16:09:26.198Z,62.26
2018-06-09T16:11:55.250Z,61.62
2018-06-09T16:14:27.501Z,61.66
2018-06-09T16:16:56.440Z,61.72
2018-06-09T16:19:25.370Z,61.27
2018-06-09T16:21:54.289Z,62.29
2018-06-09T16:24:23.226Z,62.17
2018-06-09T16:26:52.216Z,61.60
2018-06-09T16:29:21.450Z,61.46
2018-06-09T16:31:50.338Z,62.29
2018-06-09T16:34:19.240Z,62.21
2018-06-09T16:36:48.192Z,62.00
2018-06-09T16:39:18.139Z,61.79
2018-06-09T16:41:47.085Z,62.84
2018-06-09T16:44:16.046Z,62.59
2018-06-09T16:46:44.970Z,62.71
2018-06-09T16:49:13.927Z,62.67
2018-06-09T16:51:42.839Z,62.60
2018-06-09T16:54:11.777Z,62.37
2018-06-09T16:56:40.683Z,62.75
2018-06-09T16:59:09.606Z,62.71
2018-06-09T17:01:38.563Z,63.18
2018-06-09T17:04:07.614Z,62.87
2018-06-09T17:06:36.640Z,63.60
2018-06-09T17:09:08.219Z,63.59
2018-06-09T17:11:37.149Z,63.66
2018-06-09T17:14:06.088Z,64.19
2018-06-09T17:16:35.001Z,64.87
2018-06-09T17:19:03.922Z,65.10
2018-06-09T17:21:32.831Z,64.90
2018-06-09T17:24:01.738Z,65.39
2018-06-09T17:26:34.061Z,65.52
2018-06-09T17:29:02.989Z,65.55
2018-06-09T17:31:35.297Z,65.50
2018-06-09T17:34:04.249Z,65.54
2018-06-09T17:36:33.173Z,64.92
2018-06-09T17:39:02.076Z,64.91
2018-06-09T17:41:30.987Z,64.96
2018-06-09T17:43:59.959Z,65.30
2018-06-09T17:46:28.844Z,65.01
2018-06-09T17:48:57.804Z,65.38
2018-06-09T17:51:26.722Z,65.66
2018-06-09T17:53:55.662Z,65.54
2018-06-09T17:56:24.567Z,65.25
2018-06-09T17:58:53.459Z,64.48
2018-06-09T18:01:22.384Z,65.12
2018-06-09T18:03:51.331Z,65.21
2018-06-09T18:06:20.254Z,65.19
2018-06-09T18:08:49.166Z,65.33
2018-06-09T18:11:18.094Z,66.02
2018-06-09T18:13:47.036Z,65.89
2018-06-09T18:16:15.951Z,65.79
2018-06-09T18:18:44.875Z,65.69
2018-06-09T18:21:13.809Z,65.58
2018-06-09T18:23:42.735Z,65.63
2018-06-09T18:26:11.650Z,66.22
2018-06-09T18:28:40.554Z,66.15
2018-06-09T18:31:09.532Z,66.35
2018-06-09T18:33:38.483Z,65.93
2018-06-09T18:36:11.078Z,65.87
2018-06-09T18:38:40.358Z,65.88
2018-06-09T18:41:09.352Z,65.77
2018-06-09T18:43:38.829Z,66.41
2018-06-09T18:46:07.750Z,66.27
2018-06-09T18:48:36.674Z,66.45
2018-06-09T18:51:05.571Z,66.52
2018-06-09T18:53:34.531Z,66.53
2018-06-09T18:56:03.555Z,66.31
2018-06-09T18:58:32.483Z,67.03
2018-06-09T19:01:05.304Z,66.91
2018-06-09T19:03:34.230Z,67.06
2018-06-09T19:06:03.195Z,67.06
2018-06-09T19:08:32.122Z,67.60
2018-06-09T19:11:01.041Z,67.68
2018-06-09T19:13:29.970Z,68.37
2018-06-09T19:15:59.146Z,68.40
2018-06-09T19:18:28.050Z,68.45
2018-06-09T19:20:56.963Z,68.45
2018-06-09T19:23:25.897Z,68.76
2018-06-09T19:25:54.861Z,69.07
2018-06-09T19:28:23.801Z,70.31
2018-06-09T19:30:52.693Z,70.62
2018-06-09T19:33:21.666Z,71.63
2018-06-09T19:35:50.511Z,71.71
2018-06-09T19:38:19.475Z,71.66
2018-06-09T19:40:48.468Z,72.04
2018-06-09T19:43:17.328Z,71.70
2018-06-09T19:45:48.255Z,72.81
2018-06-09T19:48:17.211Z,74.60
2018-06-09T19:50:46.155Z,74.69
2018-06-09T19:53:15.073Z,75.27
2018-06-09T19:55:44.078Z,76.53
2018-06-09T19:58:13.009Z,77.23
2018-06-09T20:00:45.542Z,77.78
2018-06-09T20:03:14.538Z,77.90
2018-06-09T20:05:43.422Z,77.84
2018-06-09T20:08:12.363Z,77.77
2018-06-09T20:10:41.298Z,77.85
2018-06-09T20:13:10.244Z,78.63
2018-06-09T20:15:39.185Z,78.36
2018-06-09T20:18:08.097Z,78.54
2018-06-09T20:20:37.032Z,79.03
2018-06-09T20:23:06.073Z,79.19
2018-06-09T20:25:35.024Z,79.86
2018-06-09T20:28:07.713Z,80.09
2018-06-09T20:30:40.819Z,80.39
2018-06-09T20:33:09.770Z,80.48
2018-06-09T20:35:38.682Z,81.17
2018-06-09T20:38:07.611Z,80.61
2018-06-09T20:40:36.567Z,80.63
2018-06-09T20:43:05.476Z,80.73
2018-06-09T20:45:34.449Z,80.82
2018-06-09T20:48:03.412Z,80.58
2018-06-09T20:50:32.400Z,81.70
2018-06-09T20:53:04.750Z,81.22
2018-06-09T20:55:33.658Z,81.21
2018-06-09T20:58:02.747Z,79.96
2018-06-09T21:00:31.684Z,80.30
2018-06-09T21:03:00.606Z,79.49
2018-06-09T21:05:29.556Z,78.48
2018-06-09T21:07:58.480Z,79.14
2018-06-09T21:10:27.429Z,79.13
2018-06-09T21:12:56.338Z,78.46
2018-06-09T21:15:25.318Z,77.87
2018-06-09T21:17:54.242Z,77.73
2018-06-09T21:20:23.166Z,78.14
2018-06-09T21:22:52.124Z,77.68
2018-06-09T21:25:21.033Z,78.21
2018-06-09T21:27:55.294Z,77.95
2018-06-09T21:30:29.598Z,78.01
2018-06-09T21:33:03.831Z,78.50
2018-06-09T21:35:59.128Z,78.54
2018-06-09T21:38:28.159Z,78.79
2018-06-09T21:42:00.423Z,78.72
2018-06-09T21:44:34.704Z,78.66
2018-06-09T21:47:03.658Z,79.21
2018-06-09T21:49:32.720Z,79.16
2018-06-09T21:52:01.634Z,79.58
2018-06-09T21:54:30.588Z,79.40
2018-06-09T21:56:59.533Z,79.42
2018-06-09T21:59:28.492Z,79.90
2018-06-09T22:01:57.416Z,79.56
2018-06-09T22:04:26.442Z,79.64
2018-06-09T22:06:55.377Z,80.01
2018-06-09T22:09:24.267Z,80.39
2018-06-09T22:11:56.665Z,80.25
2018-06-09T22:14:25.676Z,80.66
2018-06-09T22:16:54.667Z,80.79
2018-06-09T22:19:23.653Z,80.37
2018-06-09T22:21:52.578Z,80.59
2018-06-09T22:24:21.615Z,80.57
2018-06-09T22:26:50.564Z,80.87
2018-06-09T22:29:19.872Z,80.85
2018-06-09T22:31:48.860Z,80.79
2018-06-09T22:34:17.843Z,80.53
2018-06-09T22:36:47.189Z,81.12
2018-06-09T22:39:16.111Z,80.76
2018-06-09T22:41:45.077Z,80.76
2018-06-09T22:44:13.934Z,80.51
2018-06-09T22:46:42.889Z,80.22
2018-06-09T22:49:11.804Z,80.26
2018-06-09T22:51:40.716Z,80.34
2018-06-09T22:54:09.663Z,80.31
2018-06-09T22:56:38.584Z,80.28
2018-06-09T22:59:07.596Z,80.72
2018-06-09T23:01:36.519Z,80.36
2018-06-09T23:04:05.459Z,80.46
2018-06-09T23:06:34.630Z,80.87
2018-06-09T23:09:03.677Z,81.55
2018-06-09T23:11:32.715Z,81.42
2018-06-09T23:14:01.680Z,81.82
2018-06-09T23:16:30.575Z,81.96
2018-06-09T23:18:59.514Z,81.07
2018-06-09T23:21:28.595Z,81.39
2018-06-09T23:23:57.490Z,82.10
2018-06-09T23:26:26.404Z,82.65
2018-06-09T23:28:55.303Z,83.72
2018-06-09T23:31:24.207Z,83.76
2018-06-09T23:33:53.119Z,83.75
2018-06-09T23:36:22.017Z,82.63
2018-06-09T23:38:50.935Z,82.42
2018-06-09T23:41:19.826Z,83.11
2018-06-09T23:43:48.728Z,83.05
2018-06-09T23:46:17.635Z,84.13
2018-06-09T23:48:46.535Z,84.98
2018-06-09T23:51:15.768Z,85.21
2018-06-09T23:53:44.982Z,86.00
2018-06-09T23:56:13.933Z,85.33
2018-06-09T23:58:42.807Z,84.85
